EWG59Y EDDK-LGKR
Flight info
| Callsign | EWG59Y |
|---|---|
| Flight time | N/A |
| Altitude | 37000 |
| Route | KUMIK1R KUMIK L603 TESGA DCT ESATI DCT DETEV DCT DINKU M867 XERUM DCT BAVAX DCT RADIZ DCT AIOSA DCT ENOXA L862 KAPPO L995 TIGRA T75 BEDEX |
| Aircraft | A320/M-SDE3FGHIJ1RWY/LB1 |
Departure
| Time | 2026-05-07 14:46 |
|---|---|
| Airport | Cologne Bonn Airport (EDDK) |
Arrival
| Time | N/A |
|---|---|
| Airport | Corfu Ioannis Kapodistrias International Airport (LGKR) |
| Time | Latitude | Longitude | Altitude | Speed | Heading |
|---|---|---|---|---|---|
| 2026-05-07 14:29 | 50.87695 | 7.12389 | 232 ft | 0 kts | 288° |
| 2026-05-07 14:35 | 50.87689 | 7.12417 | 233 ft | 4 kts | 288° |
| 2026-05-07 14:35 | 50.87682 | 7.12451 | 233 ft | 4 kts | 295° |
| 2026-05-07 14:35 | 50.87667 | 7.12481 | 234 ft | 4 kts | 339° |
| 2026-05-07 14:35 | 50.87642 | 7.12485 | 233 ft | 4 kts | 14° |
| 2026-05-07 14:36 | 50.87626 | 7.12477 | 233 ft | 0 kts | 18° |
| 2026-05-07 14:37 | 50.87628 | 7.12479 | 233 ft | 2 kts | 18° |
| 2026-05-07 14:37 | 50.87663 | 7.12496 | 233 ft | 8 kts | 18° |
| 2026-05-07 14:38 | 50.87723 | 7.12527 | 232 ft | 9 kts | 19° |
| 2026-05-07 14:38 | 50.87761 | 7.12594 | 232 ft | 8 kts | 68° |
| 2026-05-07 14:38 | 50.87766 | 7.12693 | 232 ft | 11 kts | 112° |
| 2026-05-07 14:38 | 50.87709 | 7.12785 | 232 ft | 13 kts | 137° |
| 2026-05-07 14:39 | 50.87635 | 7.12892 | 232 ft | 16 kts | 138° |
| 2026-05-07 14:39 | 50.87543 | 7.13024 | 232 ft | 19 kts | 137° |
| 2026-05-07 14:39 | 50.87440 | 7.13173 | 232 ft | 20 kts | 137° |
| 2026-05-07 14:39 | 50.87345 | 7.13312 | 232 ft | 18 kts | 137° |
| 2026-05-07 14:40 | 50.87248 | 7.13453 | 234 ft | 19 kts | 138° |
| 2026-05-07 14:40 | 50.87151 | 7.13592 | 238 ft | 17 kts | 137° |
| 2026-05-07 14:40 | 50.87073 | 7.13706 | 241 ft | 15 kts | 137° |
| 2026-05-07 14:40 | 50.86992 | 7.13825 | 244 ft | 16 kts | 137° |
| 2026-05-07 14:41 | 50.86917 | 7.13932 | 250 ft | 12 kts | 138° |
| 2026-05-07 14:41 | 50.86849 | 7.14031 | 255 ft | 15 kts | 136° |
| 2026-05-07 14:41 | 50.86758 | 7.14129 | 255 ft | 15 kts | 172° |
| 2026-05-07 14:41 | 50.86676 | 7.14219 | 260 ft | 16 kts | 137° |
| 2026-05-07 14:42 | 50.86579 | 7.14366 | 262 ft | 23 kts | 136° |
| 2026-05-07 14:42 | 50.86453 | 7.14545 | 269 ft | 25 kts | 138° |
| 2026-05-07 14:42 | 50.86319 | 7.14737 | 277 ft | 27 kts | 138° |
| 2026-05-07 14:42 | 50.86178 | 7.14941 | 285 ft | 28 kts | 137° |
| 2026-05-07 14:43 | 50.86035 | 7.15148 | 293 ft | 28 kts | 138° |
| 2026-05-07 14:43 | 50.85897 | 7.15347 | 296 ft | 27 kts | 137° |
| 2026-05-07 14:43 | 50.85761 | 7.15544 | 299 ft | 26 kts | 137° |
| 2026-05-07 14:43 | 50.85630 | 7.15734 | 303 ft | 25 kts | 137° |
| 2026-05-07 14:44 | 50.85506 | 7.15916 | 308 ft | 24 kts | 137° |
| 2026-05-07 14:44 | 50.85383 | 7.16096 | 308 ft | 24 kts | 136° |
| 2026-05-07 14:44 | 50.85340 | 7.16342 | 309 ft | 25 kts | 76° |
| 2026-05-07 14:44 | 50.85393 | 7.16462 | 308 ft | 6 kts | 40° |
| 2026-05-07 14:45 | 50.85487 | 7.16523 | 307 ft | 25 kts | 4° |
| 2026-05-07 14:45 | 50.85682 | 7.16334 | 308 ft | 53 kts | 317° |
| 2026-05-07 14:45 | 50.86122 | 7.15698 | 296 ft | 116 kts | 317° |
| 2026-05-07 14:45 | 50.86846 | 7.14649 | 310 ft | 161 kts | 318° |
| 2026-05-07 14:46 | 50.87693 | 7.13430 | 881 ft | 168 kts | 318° |
| 2026-05-07 14:46 | 50.88566 | 7.12170 | 1647 ft | 171 kts | 318° |
| 2026-05-07 14:46 | 50.89517 | 7.11020 | 2230 ft | 178 kts | 341° |
| 2026-05-07 14:46 | 50.90354 | 7.10896 | 2409 ft | 192 kts | 11° |
| 2026-05-07 14:47 | 50.92110 | 7.12036 | 2943 ft | 214 kts | 27° |
| 2026-05-07 14:47 | 50.92962 | 7.12838 | 3418 ft | 216 kts | 37° |
| 2026-05-07 14:47 | 50.93923 | 7.14745 | 4082 ft | 229 kts | 62° |
| 2026-05-07 14:47 | 50.94581 | 7.17157 | 4444 ft | 253 kts | 65° |
| 2026-05-07 14:48 | 50.95345 | 7.19757 | 5079 ft | 265 kts | 63° |
| 2026-05-07 14:48 | 50.96163 | 7.22402 | 5884 ft | 269 kts | 62° |
| 2026-05-07 14:48 | 50.97020 | 7.25117 | 6689 ft | 274 kts | 62° |
| 2026-05-07 14:48 | 50.97872 | 7.27801 | 7456 ft | 278 kts | 62° |
| 2026-05-07 14:49 | 50.98761 | 7.30595 | 8264 ft | 283 kts | 62° |
| 2026-05-07 14:49 | 50.99654 | 7.33404 | 9082 ft | 287 kts | 62° |
| 2026-05-07 14:49 | 51.00555 | 7.36248 | 9912 ft | 290 kts | 63° |
| 2026-05-07 14:49 | 51.01322 | 7.39234 | 10642 ft | 296 kts | 75° |
| 2026-05-07 14:50 | 51.01636 | 7.42567 | 10983 ft | 318 kts | 89° |
| 2026-05-07 14:50 | 51.01352 | 7.46106 | 11229 ft | 338 kts | 106° |
| 2026-05-07 14:50 | 51.00624 | 7.49731 | 11691 ft | 349 kts | 108° |
| 2026-05-07 14:50 | 50.99881 | 7.53439 | 12296 ft | 356 kts | 108° |
| 2026-05-07 14:51 | 50.99138 | 7.57202 | 12992 ft | 359 kts | 107° |
| 2026-05-07 14:51 | 50.98394 | 7.60999 | 13748 ft | 363 kts | 107° |
| 2026-05-07 14:51 | 50.97644 | 7.64851 | 14387 ft | 367 kts | 107° |
| 2026-05-07 14:51 | 50.96873 | 7.68791 | 14996 ft | 371 kts | 107° |
| 2026-05-07 14:52 | 50.96111 | 7.72663 | 15623 ft | 374 kts | 107° |
| 2026-05-07 14:52 | 50.95332 | 7.76606 | 16254 ft | 376 kts | 108° |
| 2026-05-07 14:52 | 50.94490 | 7.80602 | 16841 ft | 379 kts | 113° |
| 2026-05-07 14:52 | 50.93275 | 7.84337 | 17424 ft | 382 kts | 123° |
| 2026-05-07 14:53 | 50.91798 | 7.87853 | 18047 ft | 385 kts | 124° |
| 2026-05-07 14:53 | 50.90337 | 7.91348 | 18611 ft | 387 kts | 124° |
| 2026-05-07 14:53 | 50.88848 | 7.94919 | 19129 ft | 390 kts | 124° |
| 2026-05-07 14:53 | 50.87348 | 7.98518 | 19636 ft | 393 kts | 124° |
| 2026-05-07 14:54 | 50.85832 | 8.02142 | 20115 ft | 397 kts | 124° |
| 2026-05-07 14:54 | 50.84301 | 8.05799 | 20633 ft | 400 kts | 124° |
| 2026-05-07 14:54 | 50.82757 | 8.09475 | 21146 ft | 403 kts | 124° |
| 2026-05-07 14:54 | 50.81201 | 8.13167 | 21701 ft | 404 kts | 124° |
| 2026-05-07 14:55 | 50.79632 | 8.16878 | 22163 ft | 408 kts | 124° |
| 2026-05-07 14:55 | 50.78049 | 8.20618 | 22636 ft | 411 kts | 124° |
| 2026-05-07 14:55 | 50.76452 | 8.24386 | 23100 ft | 414 kts | 124° |
| 2026-05-07 14:55 | 50.74845 | 8.28177 | 23576 ft | 417 kts | 124° |
| 2026-05-07 14:56 | 50.73228 | 8.31997 | 23971 ft | 419 kts | 124° |
| 2026-05-07 14:56 | 50.71598 | 8.35818 | 24376 ft | 421 kts | 127° |
| 2026-05-07 14:56 | 50.69702 | 8.39343 | 24729 ft | 422 kts | 136° |
| 2026-05-07 14:56 | 50.67452 | 8.42323 | 25094 ft | 423 kts | 146° |
| 2026-05-07 14:57 | 50.64922 | 8.44694 | 25483 ft | 424 kts | 153° |
| 2026-05-07 14:57 | 50.62310 | 8.46884 | 25848 ft | 426 kts | 153° |
| 2026-05-07 14:57 | 50.59691 | 8.49087 | 26202 ft | 428 kts | 153° |
| 2026-05-07 14:57 | 50.57058 | 8.51305 | 26549 ft | 430 kts | 152° |
| 2026-05-07 14:58 | 50.54412 | 8.53538 | 26878 ft | 433 kts | 152° |
| 2026-05-07 14:58 | 50.51756 | 8.55779 | 27197 ft | 435 kts | 153° |
| 2026-05-07 14:58 | 50.49086 | 8.58023 | 27518 ft | 437 kts | 153° |
| 2026-05-07 14:58 | 50.46402 | 8.60292 | 27844 ft | 439 kts | 150° |
| 2026-05-07 14:59 | 50.43873 | 8.62984 | 28151 ft | 442 kts | 141° |
| 2026-05-07 14:59 | 50.41601 | 8.66244 | 28451 ft | 444 kts | 136° |
| 2026-05-07 14:59 | 50.39383 | 8.69620 | 28756 ft | 446 kts | 136° |
| 2026-05-07 14:59 | 50.37149 | 8.73000 | 29045 ft | 447 kts | 136° |
| 2026-05-07 15:00 | 50.34897 | 8.76383 | 29324 ft | 449 kts | 137° |
| 2026-05-07 15:00 | 50.32637 | 8.79766 | 29593 ft | 451 kts | 137° |
| 2026-05-07 15:00 | 50.30365 | 8.83161 | 29837 ft | 453 kts | 137° |
| 2026-05-07 15:00 | 50.28079 | 8.86580 | 30063 ft | 455 kts | 137° |
| 2026-05-07 15:01 | 50.25786 | 8.90014 | 30276 ft | 457 kts | 137° |
| 2026-05-07 15:01 | 50.23486 | 8.93457 | 30479 ft | 459 kts | 137° |
| 2026-05-07 15:01 | 50.21178 | 8.96908 | 30670 ft | 460 kts | 137° |
| 2026-05-07 15:01 | 50.18864 | 9.00361 | 30908 ft | 460 kts | 137° |
| 2026-05-07 15:02 | 50.16550 | 9.03809 | 31174 ft | 460 kts | 137° |
| 2026-05-07 15:02 | 50.14235 | 9.07250 | 31441 ft | 460 kts | 137° |
| 2026-05-07 15:02 | 50.11917 | 9.10691 | 31706 ft | 460 kts | 137° |
| 2026-05-07 15:02 | 50.09601 | 9.14126 | 31974 ft | 460 kts | 137° |
| 2026-05-07 15:03 | 50.07288 | 9.17550 | 32254 ft | 459 kts | 137° |
| 2026-05-07 15:03 | 50.04966 | 9.20977 | 32523 ft | 459 kts | 137° |
| 2026-05-07 15:03 | 50.02652 | 9.24389 | 32778 ft | 459 kts | 137° |